createdAt,value
2022-10-25T00:01:22.319Z,10.80
2022-10-25T00:03:49.001Z,10.80
2022-10-25T00:06:15.526Z,10.80
2022-10-25T00:08:42.083Z,10.70
2022-10-25T00:11:08.559Z,10.70
2022-10-25T00:13:35.109Z,10.60
2022-10-25T00:16:01.590Z,10.50
2022-10-25T00:18:28.112Z,10.50
2022-10-25T00:20:54.699Z,10.40
2022-10-25T00:23:21.188Z,10.40
2022-10-25T00:25:47.715Z,10.30
2022-10-25T00:28:14.317Z,10.30
2022-10-25T00:30:40.806Z,10.20
2022-10-25T00:33:07.312Z,10.20
2022-10-25T00:35:33.828Z,10.10
2022-10-25T00:38:00.353Z,10.00
2022-10-25T00:40:26.837Z,10.00
2022-10-25T00:42:53.394Z,10.00
2022-10-25T00:45:19.878Z,9.90
2022-10-25T00:47:46.647Z,9.90
2022-10-25T00:50:13.430Z,9.80
2022-10-25T00:52:39.906Z,9.80
2022-10-25T00:55:06.426Z,9.80
2022-10-25T00:57:32.973Z,9.80
2022-10-25T00:59:59.527Z,9.70
2022-10-25T01:02:26.096Z,9.70
2022-10-25T01:04:52.634Z,9.60
2022-10-25T01:07:19.164Z,9.60
2022-10-25T01:09:45.625Z,9.50
2022-10-25T01:12:12.106Z,9.50
2022-10-25T01:14:38.599Z,9.50
2022-10-25T01:17:05.130Z,9.40
2022-10-25T01:19:31.640Z,9.40
2022-10-25T01:21:58.156Z,9.40
2022-10-25T01:24:24.708Z,9.40
2022-10-25T01:26:51.220Z,9.40
2022-10-25T01:29:17.697Z,9.40
2022-10-25T01:31:44.196Z,9.40
2022-10-25T01:34:10.708Z,9.30
2022-10-25T01:36:37.263Z,9.30
2022-10-25T01:39:03.784Z,9.20
2022-10-25T01:41:30.300Z,9.20
2022-10-25T01:43:56.840Z,9.20
2022-10-25T01:46:23.378Z,9.10
2022-10-25T01:48:49.904Z,9.10
2022-10-25T01:51:16.451Z,9.10
2022-10-25T01:53:42.917Z,9.00
2022-10-25T01:56:09.428Z,8.90
2022-10-25T01:58:35.992Z,8.90
2022-10-25T02:01:02.548Z,8.90
2022-10-25T02:03:29.072Z,8.90
2022-10-25T02:05:55.565Z,8.80
2022-10-25T02:08:22.040Z,8.80
2022-10-25T02:10:48.554Z,8.70
2022-10-25T02:13:15.053Z,8.70
2022-10-25T02:15:41.570Z,8.70
2022-10-25T02:18:08.098Z,8.60
2022-10-25T02:20:35.659Z,8.60
2022-10-25T02:23:02.180Z,8.50
2022-10-25T02:25:28.706Z,8.50
2022-10-25T02:27:55.253Z,8.50
2022-10-25T02:30:21.816Z,8.50
2022-10-25T02:32:48.339Z,8.40
2022-10-25T02:35:14.853Z,8.40
2022-10-25T02:37:41.408Z,8.40
2022-10-25T02:40:07.938Z,8.50
2022-10-25T02:42:34.456Z,8.40
2022-10-25T02:45:00.965Z,8.40
2022-10-25T02:47:27.486Z,8.40
2022-10-25T02:49:54.002Z,8.40
2022-10-25T02:52:20.555Z,8.40
2022-10-25T02:54:47.028Z,8.40
2022-10-25T02:57:13.543Z,8.40
2022-10-25T02:59:40.057Z,8.40
2022-10-25T03:02:06.538Z,8.40
2022-10-25T03:04:33.040Z,8.40
2022-10-25T03:06:59.597Z,8.40
2022-10-25T03:09:26.086Z,8.40
2022-10-25T03:11:52.608Z,8.30
2022-10-25T03:14:19.237Z,8.20
2022-10-25T03:16:45.795Z,8.20
2022-10-25T03:19:12.344Z,8.10
2022-10-25T03:21:41.287Z,8.10
2022-10-25T03:24:08.728Z,8.00
2022-10-25T03:26:35.338Z,8.00
2022-10-25T03:29:01.874Z,7.90
2022-10-25T03:31:28.368Z,7.90
2022-10-25T03:33:55.027Z,7.90
2022-10-25T03:36:21.533Z,7.90
2022-10-25T03:38:48.084Z,7.80
2022-10-25T03:41:14.575Z,7.80
2022-10-25T03:43:41.152Z,7.80
2022-10-25T03:46:07.705Z,7.70
2022-10-25T03:48:34.183Z,7.70
2022-10-25T03:51:00.716Z,7.70
2022-10-25T03:53:27.224Z,7.70
2022-10-25T03:55:53.744Z,7.70
2022-10-25T03:58:20.279Z,7.70
2022-10-25T04:00:46.787Z,7.70
2022-10-25T04:03:13.350Z,7.60
2022-10-25T04:05:39.912Z,7.60
2022-10-25T04:08:06.485Z,7.60
2022-10-25T04:10:33.006Z,7.50
2022-10-25T04:12:59.593Z,7.50
2022-10-25T04:15:26.189Z,7.50
2022-10-25T04:17:54.282Z,7.50
2022-10-25T04:20:21.247Z,7.50
2022-10-25T04:22:48.024Z,7.40
2022-10-25T04:25:14.570Z,7.40
2022-10-25T04:27:41.048Z,7.40
2022-10-25T04:30:07.550Z,7.30
2022-10-25T04:32:34.061Z,7.30
2022-10-25T04:35:00.599Z,7.30
2022-10-25T04:37:27.125Z,7.30
2022-10-25T04:39:53.655Z,7.30
2022-10-25T04:42:20.184Z,7.20
2022-10-25T04:44:46.656Z,7.20
2022-10-25T04:47:13.156Z,7.20
2022-10-25T04:49:39.665Z,7.10
2022-10-25T04:52:06.173Z,7.10
2022-10-25T04:54:32.716Z,7.10
2022-10-25T04:56:59.230Z,7.00
2022-10-25T04:59:25.754Z,7.00
2022-10-25T05:04:23.726Z,7.00
2022-10-25T05:06:50.218Z,7.00
2022-10-25T05:09:16.775Z,7.00
2022-10-25T05:11:43.304Z,6.90
2022-10-25T05:14:09.816Z,7.00
2022-10-25T05:16:36.377Z,6.90
2022-10-25T05:19:02.894Z,6.90
2022-10-25T05:21:29.410Z,6.90
2022-10-25T05:24:00.565Z,6.90
2022-10-25T05:26:28.834Z,6.90
2022-10-25T05:28:55.316Z,6.90
2022-10-25T05:31:21.873Z,6.90
2022-10-25T05:33:48.347Z,6.90
2022-10-25T05:36:14.885Z,6.90
2022-10-25T05:38:41.396Z,6.90
2022-10-25T05:41:07.911Z,6.90
2022-10-25T05:43:34.448Z,6.90
2022-10-25T05:46:00.953Z,6.90
2022-10-25T05:48:27.432Z,6.90
2022-10-25T05:50:59.378Z,6.90
2022-10-25T05:53:35.078Z,6.90
2022-10-25T05:56:01.558Z,6.90
2022-10-25T05:58:28.036Z,6.80
2022-10-25T06:00:54.583Z,6.80
2022-10-25T06:03:21.084Z,6.80
2022-10-25T06:05:47.592Z,6.70
2022-10-25T06:08:14.127Z,6.80
2022-10-25T06:10:40.719Z,6.80
2022-10-25T06:13:07.253Z,6.80
2022-10-25T06:15:33.810Z,6.70
2022-10-25T06:18:00.330Z,6.70
2022-10-25T06:20:26.869Z,6.70
2022-10-25T06:22:53.429Z,6.70
2022-10-25T06:25:19.899Z,6.70
2022-10-25T06:27:46.449Z,6.70
2022-10-25T06:30:12.973Z,6.70
2022-10-25T06:32:39.494Z,6.80
2022-10-25T06:35:06.017Z,6.70
2022-10-25T06:37:32.529Z,6.70
2022-10-25T06:39:59.054Z,6.80
2022-10-25T06:42:25.593Z,6.80
2022-10-25T06:44:52.066Z,6.80
2022-10-25T06:47:18.572Z,6.80
2022-10-25T06:49:45.121Z,6.80
2022-10-25T06:52:11.674Z,6.80
2022-10-25T06:54:38.210Z,6.90
2022-10-25T06:57:04.751Z,6.90
2022-10-25T06:59:31.316Z,6.90
2022-10-25T07:01:57.894Z,6.90
2022-10-25T07:04:24.485Z,6.90
2022-10-25T07:06:52.982Z,7.00
2022-10-25T07:09:21.812Z,7.00
2022-10-25T07:11:48.303Z,7.00
2022-10-25T07:14:14.866Z,7.00
2022-10-25T07:16:41.336Z,7.10
2022-10-25T07:19:07.846Z,7.10
2022-10-25T07:21:34.377Z,7.20
2022-10-25T07:24:00.897Z,7.20
2022-10-25T07:26:27.420Z,7.30
2022-10-25T07:28:53.988Z,7.40
2022-10-25T07:31:20.506Z,7.50
2022-10-25T07:33:47.038Z,7.60
2022-10-25T07:36:13.590Z,7.60
2022-10-25T07:38:40.109Z,7.70
2022-10-25T07:41:06.620Z,7.80
2022-10-25T07:43:33.182Z,7.90
2022-10-25T07:45:59.693Z,8.00
2022-10-25T07:48:26.217Z,8.00
2022-10-25T07:50:52.717Z,8.10
2022-10-25T07:53:19.241Z,8.20
2022-10-25T07:55:45.785Z,8.30
2022-10-25T07:58:12.293Z,8.30
2022-10-25T08:00:38.982Z,8.40
2022-10-25T08:03:05.583Z,8.50
2022-10-25T08:05:32.127Z,8.60
2022-10-25T08:07:58.636Z,8.80
2022-10-25T08:10:25.193Z,9.00
2022-10-25T08:12:51.700Z,9.30
2022-10-25T08:15:18.205Z,9.60
2022-10-25T08:17:45.098Z,9.80
2022-10-25T08:20:11.873Z,10.00
2022-10-25T08:22:38.405Z,10.20
2022-10-25T08:25:05.266Z,10.40
2022-10-25T08:27:31.960Z,10.60
2022-10-25T08:29:58.447Z,10.80
2022-10-25T08:32:24.980Z,11.10
2022-10-25T08:34:51.506Z,11.30
2022-10-25T08:37:18.034Z,11.50
2022-10-25T08:39:44.585Z,11.70
2022-10-25T08:42:11.107Z,11.80
2022-10-25T08:44:38.692Z,11.90
2022-10-25T08:47:05.248Z,12.00
2022-10-25T08:49:31.746Z,12.10
2022-10-25T08:51:58.290Z,12.20
2022-10-25T08:54:24.818Z,12.30
2022-10-25T08:57:10.533Z,12.40
2022-10-25T08:59:38.025Z,12.50
2022-10-25T09:02:04.691Z,12.60
2022-10-25T09:04:31.267Z,12.80
2022-10-25T09:06:58.033Z,12.90
2022-10-25T09:09:24.561Z,12.90
2022-10-25T09:11:51.021Z,13.10
2022-10-25T09:14:17.581Z,13.10
2022-10-25T09:16:44.074Z,13.20
2022-10-25T09:19:10.585Z,13.20
2022-10-25T09:21:37.089Z,13.20
2022-10-25T09:24:03.602Z,13.20
2022-10-25T09:26:30.153Z,13.20
2022-10-25T09:28:56.672Z,13.20
2022-10-25T09:31:23.210Z,13.30
2022-10-25T09:33:49.774Z,13.30
2022-10-25T09:36:16.310Z,13.30
2022-10-25T09:38:42.790Z,13.30
2022-10-25T09:41:09.347Z,13.20
2022-10-25T09:43:35.875Z,13.20
2022-10-25T09:46:02.421Z,13.10
2022-10-25T09:48:28.960Z,13.10
2022-10-25T09:50:55.482Z,13.20
2022-10-25T09:53:24.108Z,13.20
2022-10-25T09:55:50.953Z,13.20
2022-10-25T09:58:17.477Z,13.20
2022-10-25T10:00:44.339Z,13.20
2022-10-25T10:03:10.839Z,13.30
2022-10-25T10:05:37.389Z,13.30
2022-10-25T10:08:03.917Z,13.30
2022-10-25T10:10:30.403Z,13.30
2022-10-25T10:12:56.887Z,13.40
2022-10-25T10:15:23.388Z,13.40
2022-10-25T10:17:50.081Z,13.40
2022-10-25T10:20:16.797Z,13.40
2022-10-25T10:22:43.351Z,13.40
2022-10-25T10:25:09.858Z,13.40
2022-10-25T10:27:36.397Z,13.40
2022-10-25T10:30:02.942Z,13.50
2022-10-25T10:32:29.535Z,13.50
2022-10-25T10:34:56.045Z,13.50
2022-10-25T10:37:22.607Z,13.60
2022-10-25T10:39:49.116Z,13.50
2022-10-25T10:42:15.643Z,13.60
2022-10-25T10:44:42.163Z,13.60
2022-10-25T10:47:08.724Z,13.80
2022-10-25T10:49:35.297Z,13.80
2022-10-25T10:52:01.865Z,13.90
2022-10-25T10:54:28.346Z,14.00
2022-10-25T10:56:54.869Z,14.10
2022-10-25T10:59:21.437Z,14.10
2022-10-25T11:01:48.036Z,14.20
2022-10-25T11:04:14.606Z,14.20
2022-10-25T11:06:41.114Z,14.30
2022-10-25T11:09:07.659Z,14.40
2022-10-25T11:11:34.145Z,14.50
2022-10-25T11:14:00.692Z,14.60
2022-10-25T11:16:28.062Z,14.70
2022-10-25T11:18:54.763Z,14.80
2022-10-25T11:21:21.338Z,14.90
2022-10-25T11:23:47.865Z,15.00
2022-10-25T11:26:14.392Z,15.10
2022-10-25T11:28:40.950Z,15.20
2022-10-25T11:31:07.465Z,15.30
2022-10-25T11:33:33.959Z,15.40
2022-10-25T11:36:01.503Z,15.50
2022-10-25T11:38:28.020Z,15.60
2022-10-25T11:40:54.492Z,15.60
2022-10-25T11:43:21.010Z,15.60
2022-10-25T11:45:47.501Z,15.80
2022-10-25T11:48:14.030Z,15.90
2022-10-25T11:50:40.583Z,16.10
2022-10-25T11:53:07.115Z,16.20
2022-10-25T11:55:33.637Z,16.30
2022-10-25T11:58:03.174Z,16.40
2022-10-25T12:00:33.530Z,16.40
2022-10-25T12:03:00.099Z,16.50
2022-10-25T12:05:26.692Z,16.60
2022-10-25T12:07:53.218Z,16.70
2022-10-25T12:10:19.766Z,16.80
2022-10-25T12:12:46.729Z,16.80
2022-10-25T12:15:13.461Z,16.80
2022-10-25T12:17:39.982Z,16.70
2022-10-25T12:20:06.502Z,16.70
2022-10-25T12:22:33.010Z,16.80
2022-10-25T12:24:59.494Z,16.80
2022-10-25T12:27:26.004Z,16.90
2022-10-25T12:29:52.562Z,17.00
2022-10-25T12:32:19.093Z,17.10
2022-10-25T12:34:45.567Z,17.20
2022-10-25T12:37:12.123Z,17.10
2022-10-25T12:39:38.613Z,17.20
2022-10-25T12:42:05.102Z,17.20
2022-10-25T12:44:31.726Z,17.20
2022-10-25T12:46:58.255Z,17.20
2022-10-25T12:49:24.782Z,17.20
2022-10-25T12:51:51.340Z,17.10
2022-10-25T12:54:17.904Z,17.10
2022-10-25T12:56:44.431Z,17.10
2022-10-25T12:59:10.959Z,17.20
2022-10-25T13:01:37.477Z,17.20
2022-10-25T13:04:04.038Z,17.10
2022-10-25T13:06:30.572Z,17.10
2022-10-25T13:08:57.099Z,17.10
2022-10-25T13:11:23.769Z,17.20
2022-10-25T13:13:50.289Z,17.10
2022-10-25T13:16:16.764Z,17.10
2022-10-25T13:18:43.308Z,17.20
2022-10-25T13:21:10.032Z,17.20
2022-10-25T13:23:36.560Z,17.10
2022-10-25T13:26:03.074Z,17.00
2022-10-25T13:28:32.763Z,17.00
2022-10-25T13:31:01.878Z,17.00
2022-10-25T13:33:28.402Z,17.00
2022-10-25T13:35:54.896Z,16.90
2022-10-25T13:38:21.407Z,16.90
2022-10-25T13:40:47.908Z,16.90
2022-10-25T13:43:14.396Z,16.90
2022-10-25T13:45:40.878Z,16.90
2022-10-25T13:48:07.442Z,16.80
2022-10-25T13:50:33.925Z,16.80
2022-10-25T13:53:02.496Z,16.80
2022-10-25T13:55:29.555Z,16.80
2022-10-25T13:57:56.236Z,16.70
2022-10-25T14:00:22.719Z,16.60
2022-10-25T14:02:49.531Z,16.50
2022-10-25T14:05:16.279Z,16.50
2022-10-25T14:07:42.763Z,16.50
2022-10-25T14:10:09.355Z,16.40
2022-10-25T14:12:35.853Z,16.40
2022-10-25T14:15:02.336Z,16.40
2022-10-25T14:17:28.914Z,16.30
2022-10-25T14:19:55.402Z,16.30
2022-10-25T14:22:21.912Z,16.20
2022-10-25T14:24:48.495Z,16.10
2022-10-25T14:27:14.984Z,16.10
2022-10-25T14:29:41.492Z,16.00
2022-10-25T14:32:08.047Z,16.00
2022-10-25T14:34:34.574Z,16.00
2022-10-25T14:37:01.144Z,15.90
2022-10-25T14:39:27.653Z,16.00
2022-10-25T14:41:54.134Z,16.00
2022-10-25T14:44:20.689Z,16.00
2022-10-25T14:46:47.179Z,16.00
2022-10-25T14:49:13.707Z,16.00
2022-10-25T14:51:40.232Z,16.00
2022-10-25T14:54:06.755Z,15.90
2022-10-25T14:56:33.401Z,15.80
2022-10-25T14:58:59.950Z,15.80
2022-10-25T15:01:26.552Z,15.70
2022-10-25T15:03:53.116Z,15.60
2022-10-25T15:06:19.672Z,15.50
2022-10-25T15:08:50.819Z,15.40
2022-10-25T15:11:18.803Z,15.30
2022-10-25T15:13:45.329Z,15.20
2022-10-25T15:16:11.860Z,15.20
2022-10-25T15:18:38.433Z,15.10
2022-10-25T15:21:04.940Z,15.00
2022-10-25T15:23:31.461Z,14.90
2022-10-25T15:25:58.002Z,14.90
2022-10-25T15:28:24.535Z,14.80
2022-10-25T15:30:51.056Z,14.70
2022-10-25T15:33:17.608Z,14.60
2022-10-25T15:35:44.090Z,14.50
2022-10-25T15:38:10.616Z,14.50
2022-10-25T15:40:37.158Z,14.30
2022-10-25T15:43:03.680Z,14.30
2022-10-25T15:45:30.226Z,14.20
2022-10-25T15:47:56.707Z,14.10
2022-10-25T15:50:23.179Z,14.00
2022-10-25T15:52:50.263Z,14.00
2022-10-25T15:55:17.031Z,13.90
2022-10-25T15:57:43.555Z,13.80
2022-10-25T16:00:10.030Z,13.70
2022-10-25T16:02:36.542Z,13.60
2022-10-25T16:05:03.098Z,13.50
2022-10-25T16:07:29.618Z,13.40
2022-10-25T16:09:56.140Z,13.30
2022-10-25T16:12:22.675Z,13.10
2022-10-25T16:14:49.287Z,13.00
2022-10-25T16:17:15.868Z,12.90
2022-10-25T16:19:42.347Z,12.80
2022-10-25T16:22:08.841Z,12.70
2022-10-25T16:24:35.331Z,12.60
2022-10-25T16:27:01.815Z,12.60
2022-10-25T16:29:28.326Z,12.50
2022-10-25T16:31:54.860Z,12.40
2022-10-25T16:34:21.372Z,12.30
2022-10-25T16:36:47.864Z,12.20
2022-10-25T16:39:14.400Z,12.10
2022-10-25T16:41:40.921Z,12.10
2022-10-25T16:44:07.477Z,12.00
2022-10-25T16:46:34.002Z,11.90
2022-10-25T16:49:02.093Z,11.90
2022-10-25T16:51:28.972Z,11.80
2022-10-25T16:53:55.449Z,11.70
2022-10-25T16:56:21.966Z,11.60
2022-10-25T16:58:48.629Z,11.50
2022-10-25T17:01:15.297Z,11.40
2022-10-25T17:03:42.301Z,11.40
2022-10-25T17:06:22.263Z,11.30
2022-10-25T17:08:55.334Z,11.20
2022-10-25T17:11:21.906Z,11.10
2022-10-25T17:13:48.408Z,11.00
2022-10-25T17:16:14.913Z,10.90
2022-10-25T17:18:41.441Z,10.80
2022-10-25T17:21:07.989Z,10.70
2022-10-25T17:23:34.506Z,10.60
2022-10-25T17:26:01.020Z,10.50
2022-10-25T17:28:27.513Z,10.40
2022-10-25T17:30:54.006Z,10.30
2022-10-25T17:33:20.539Z,10.30
2022-10-25T17:35:47.045Z,10.30
2022-10-25T17:38:13.557Z,10.30
2022-10-25T17:40:40.094Z,10.20
2022-10-25T17:43:07.825Z,10.10
2022-10-25T17:45:34.389Z,10.10
2022-10-25T17:48:00.924Z,10.00
2022-10-25T17:50:27.440Z,10.00
2022-10-25T17:52:53.929Z,9.90
2022-10-25T17:55:20.443Z,9.90
2022-10-25T17:57:47.170Z,9.90
2022-10-25T18:00:13.906Z,9.80
2022-10-25T18:02:40.456Z,9.70
2022-10-25T18:05:19.799Z,9.70
2022-10-25T18:07:47.672Z,9.60
2022-10-25T18:10:14.355Z,9.50
2022-10-25T18:12:40.873Z,9.40
2022-10-25T18:15:07.403Z,9.30
2022-10-25T18:17:33.883Z,9.30
2022-10-25T18:20:00.406Z,9.20
2022-10-25T18:22:26.964Z,9.10
2022-10-25T18:24:53.480Z,9.00
2022-10-25T18:27:20.006Z,9.00
2022-10-25T18:29:46.562Z,9.00
2022-10-25T18:32:13.087Z,8.90
2022-10-25T18:34:39.610Z,8.90
2022-10-25T18:37:06.148Z,8.80
2022-10-25T18:39:32.696Z,8.70
2022-10-25T18:41:59.213Z,8.70
2022-10-25T18:44:25.701Z,8.60
2022-10-25T18:46:52.265Z,8.60
2022-10-25T18:49:18.782Z,8.60
2022-10-25T18:51:45.333Z,8.50
2022-10-25T18:54:11.862Z,8.40
2022-10-25T18:56:38.341Z,8.30
2022-10-25T18:59:05.105Z,8.30
2022-10-25T19:01:31.794Z,8.30
2022-10-25T19:03:58.355Z,8.30
2022-10-25T19:06:24.880Z,8.20
2022-10-25T19:08:51.418Z,8.20
2022-10-25T19:11:17.962Z,8.10
2022-10-25T19:13:47.603Z,8.10
2022-10-25T19:16:17.066Z,8.10
2022-10-25T19:18:43.562Z,8.00
2022-10-25T19:21:10.110Z,8.00
2022-10-25T19:23:36.593Z,8.00
2022-10-25T19:26:03.078Z,7.90
2022-10-25T19:28:29.604Z,7.90
2022-10-25T19:30:56.126Z,7.80
2022-10-25T19:33:22.601Z,7.80
2022-10-25T19:35:49.258Z,7.80
2022-10-25T19:38:15.729Z,7.70
2022-10-25T19:40:42.217Z,7.70
2022-10-25T19:43:08.753Z,7.70
2022-10-25T19:45:35.264Z,7.60
2022-10-25T19:48:01.746Z,7.60
2022-10-25T19:50:28.255Z,7.50
2022-10-25T19:52:54.736Z,7.50
2022-10-25T19:55:21.258Z,7.40
2022-10-25T19:57:48.083Z,7.40
2022-10-25T20:00:14.812Z,7.30
2022-10-25T20:02:41.291Z,7.30
2022-10-25T20:05:07.876Z,7.30
2022-10-25T20:07:34.449Z,7.20
2022-10-25T20:10:00.960Z,7.10
2022-10-25T20:12:27.513Z,7.10
2022-10-25T20:14:54.043Z,7.10
2022-10-25T20:17:20.569Z,7.10
2022-10-25T20:19:47.133Z,7.10
2022-10-25T20:22:13.653Z,7.10
2022-10-25T20:24:40.140Z,7.10
2022-10-25T20:27:06.712Z,7.00
2022-10-25T20:29:33.221Z,7.00
2022-10-25T20:31:59.745Z,7.00
2022-10-25T20:34:26.296Z,6.90
2022-10-25T20:36:52.813Z,6.90
2022-10-25T20:39:19.334Z,6.80
2022-10-25T20:41:45.936Z,6.80
2022-10-25T20:44:12.529Z,6.80
2022-10-25T20:46:39.021Z,6.70
2022-10-25T20:49:05.545Z,6.70
2022-10-25T20:51:32.130Z,6.70
2022-10-25T20:53:58.622Z,6.70
2022-10-25T20:56:25.115Z,6.70
2022-10-25T20:58:51.653Z,6.70
2022-10-25T21:01:18.196Z,6.70
2022-10-25T21:03:44.785Z,6.70
2022-10-25T21:06:11.301Z,6.60
2022-10-25T21:08:37.828Z,6.60
2022-10-25T21:11:04.305Z,6.60
2022-10-25T21:13:30.828Z,6.50
2022-10-25T21:15:57.321Z,6.50
2022-10-25T21:18:23.847Z,6.50
2022-10-25T21:20:50.315Z,6.40
2022-10-25T21:23:16.889Z,6.40
2022-10-25T21:25:43.404Z,6.40
2022-10-25T21:28:09.905Z,6.40
2022-10-25T21:30:36.459Z,6.30
2022-10-25T21:33:02.975Z,6.30
2022-10-25T21:35:29.499Z,6.20
2022-10-25T21:37:56.119Z,6.30
2022-10-25T21:40:22.641Z,6.20
2022-10-25T21:42:49.116Z,6.20
2022-10-25T21:45:15.625Z,6.20
2022-10-25T21:47:42.136Z,6.10
2022-10-25T21:50:08.646Z,6.10
2022-10-25T21:52:35.190Z,6.10
2022-10-25T21:55:01.715Z,6.10
2022-10-25T21:57:28.185Z,6.00
2022-10-25T21:59:54.716Z,6.00
2022-10-25T22:02:21.459Z,6.00
2022-10-25T22:04:48.083Z,6.00
2022-10-25T22:07:14.591Z,6.00
2022-10-25T22:09:41.065Z,6.00
2022-10-25T22:12:07.573Z,6.00
2022-10-25T22:14:34.062Z,6.00
2022-10-25T22:17:00.545Z,5.90
2022-10-25T22:19:27.127Z,5.90
2022-10-25T22:21:53.662Z,5.90
2022-10-25T22:24:20.172Z,5.80
2022-10-25T22:26:46.898Z,5.80
2022-10-25T22:29:13.412Z,5.80
2022-10-25T22:31:39.930Z,5.80
2022-10-25T22:34:06.415Z,5.80
2022-10-25T22:36:32.978Z,5.80
2022-10-25T22:38:59.458Z,5.80
2022-10-25T22:41:25.965Z,5.80
2022-10-25T22:43:52.510Z,5.80
2022-10-25T22:46:18.984Z,5.80
2022-10-25T22:48:45.461Z,5.80
2022-10-25T22:51:12.006Z,5.70
2022-10-25T22:53:38.481Z,5.70
2022-10-25T22:56:04.989Z,5.70
2022-10-25T22:58:31.513Z,5.60
2022-10-25T23:00:58.100Z,5.60
2022-10-25T23:03:24.611Z,5.60
2022-10-25T23:05:51.105Z,5.60
2022-10-25T23:08:17.666Z,5.60
2022-10-25T23:10:44.186Z,5.60
2022-10-25T23:13:10.712Z,5.60
2022-10-25T23:15:37.354Z,5.60
2022-10-25T23:18:03.881Z,5.50
2022-10-25T23:20:30.405Z,5.50
2022-10-25T23:22:56.946Z,5.50
2022-10-25T23:25:23.465Z,5.50
2022-10-25T23:27:50.165Z,5.40
2022-10-25T23:30:16.943Z,5.40
2022-10-25T23:32:43.427Z,5.40
2022-10-25T23:35:09.953Z,5.40
2022-10-25T23:37:36.465Z,5.30
2022-10-25T23:40:02.956Z,5.30
2022-10-25T23:42:29.482Z,5.30
2022-10-25T23:44:56.036Z,5.40
2022-10-25T23:47:22.512Z,5.30
2022-10-25T23:49:49.069Z,5.30
2022-10-25T23:52:15.591Z,5.20
2022-10-25T23:54:42.105Z,5.20
2022-10-25T23:57:08.669Z,5.20
2022-10-25T23:59:35.192Z,5.20
